sensor_id;sensor_type;location;lat;lon;timestamp;P1;durP1;ratioP1;P2;durP2;ratioP2
61435;SDS011;47304;47.456;19.160;2023-08-17T00:01:15;15.70;;;11.30;;
61435;SDS011;47304;47.456;19.160;2023-08-17T00:03:42;15.30;;;11.00;;
61435;SDS011;47304;47.456;19.160;2023-08-17T00:06:08;15.30;;;11.50;;
61435;SDS011;47304;47.456;19.160;2023-08-17T00:08:35;14.10;;;10.70;;
61435;SDS011;47304;47.456;19.160;2023-08-17T00:11:01;14.60;;;11.40;;
61435;SDS011;47304;47.456;19.160;2023-08-17T00:13:28;15.10;;;12.00;;
61435;SDS011;47304;47.456;19.160;2023-08-17T00:15:54;14.50;;;11.30;;
61435;SDS011;47304;47.456;19.160;2023-08-17T00:18:21;13.90;;;11.10;;
61435;SDS011;47304;47.456;19.160;2023-08-17T00:20:47;16.00;;;12.30;;
61435;SDS011;47304;47.456;19.160;2023-08-17T00:23:14;16.40;;;11.60;;
61435;SDS011;47304;47.456;19.160;2023-08-17T00:25:40;15.70;;;12.10;;
61435;SDS011;47304;47.456;19.160;2023-08-17T00:28:07;15.60;;;10.80;;
61435;SDS011;47304;47.456;19.160;2023-08-17T00:30:34;16.00;;;11.90;;
61435;SDS011;47304;47.456;19.160;2023-08-17T00:33:00;14.90;;;12.00;;
61435;SDS011;47304;47.456;19.160;2023-08-17T00:35:27;16.60;;;11.40;;
61435;SDS011;47304;47.456;19.160;2023-08-17T00:37:54;14.60;;;11.60;;
61435;SDS011;47304;47.456;19.160;2023-08-17T00:40:20;15.80;;;11.80;;
61435;SDS011;47304;47.456;19.160;2023-08-17T00:42:47;16.60;;;12.20;;
61435;SDS011;47304;47.456;19.160;2023-08-17T00:45:15;18.90;;;12.30;;
61435;SDS011;47304;47.456;19.160;2023-08-17T00:47:42;16.10;;;12.50;;
61435;SDS011;47304;47.456;19.160;2023-08-17T00:50:09;16.70;;;12.10;;
61435;SDS011;47304;47.456;19.160;2023-08-17T00:52:37;15.90;;;12.10;;
61435;SDS011;47304;47.456;19.160;2023-08-17T00:55:04;16.30;;;12.40;;
61435;SDS011;47304;47.456;19.160;2023-08-17T00:57:31;16.70;;;12.10;;
61435;SDS011;47304;47.456;19.160;2023-08-17T00:59:59;16.30;;;11.90;;
61435;SDS011;47304;47.456;19.160;2023-08-17T01:02:31;16.60;;;12.00;;
61435;SDS011;47304;47.456;19.160;2023-08-17T01:04:58;16.70;;;12.20;;
61435;SDS011;47304;47.456;19.160;2023-08-17T01:07:25;15.20;;;11.50;;
61435;SDS011;47304;47.456;19.160;2023-08-17T01:09:52;16.30;;;11.40;;
61435;SDS011;47304;47.456;19.160;2023-08-17T01:12:29;16.00;;;12.40;;
61435;SDS011;47304;47.456;19.160;2023-08-17T01:17:40;15.80;;;11.70;;
61435;SDS011;47304;47.456;19.160;2023-08-17T01:22:37;14.90;;;10.70;;
61435;SDS011;47304;47.456;19.160;2023-08-17T01:25:06;15.40;;;11.20;;
61435;SDS011;47304;47.456;19.160;2023-08-17T01:27:39;14.60;;;11.30;;
61435;SDS011;47304;47.456;19.160;2023-08-17T01:30:07;13.60;;;10.60;;
61435;SDS011;47304;47.456;19.160;2023-08-17T01:35:14;14.90;;;11.30;;
61435;SDS011;47304;47.456;19.160;2023-08-17T01:37:42;14.00;;;10.90;;
61435;SDS011;47304;47.456;19.160;2023-08-17T01:40:09;15.20;;;11.00;;
61435;SDS011;47304;47.456;19.160;2023-08-17T01:42:38;13.50;;;10.70;;
61435;SDS011;47304;47.456;19.160;2023-08-17T01:45:06;14.80;;;10.80;;
61435;SDS011;47304;47.456;19.160;2023-08-17T01:47:33;15.40;;;11.70;;
61435;SDS011;47304;47.456;19.160;2023-08-17T01:49:59;17.10;;;11.40;;
61435;SDS011;47304;47.456;19.160;2023-08-17T01:52:28;14.10;;;11.10;;
61435;SDS011;47304;47.456;19.160;2023-08-17T01:54:55;16.60;;;11.70;;
61435;SDS011;47304;47.456;19.160;2023-08-17T01:57:22;14.80;;;11.00;;
61435;SDS011;47304;47.456;19.160;2023-08-17T01:59:49;18.80;;;11.20;;
61435;SDS011;47304;47.456;19.160;2023-08-17T02:02:15;15.20;;;11.40;;
61435;SDS011;47304;47.456;19.160;2023-08-17T02:04:42;14.20;;;11.10;;
61435;SDS011;47304;47.456;19.160;2023-08-17T02:07:08;13.60;;;11.10;;
61435;SDS011;47304;47.456;19.160;2023-08-17T02:09:35;14.30;;;10.50;;
61435;SDS011;47304;47.456;19.160;2023-08-17T02:12:01;13.90;;;10.00;;
61435;SDS011;47304;47.456;19.160;2023-08-17T02:14:28;13.70;;;10.00;;
61435;SDS011;47304;47.456;19.160;2023-08-17T02:16:54;13.00;;;10.30;;
61435;SDS011;47304;47.456;19.160;2023-08-17T02:19:21;14.60;;;9.80;;
61435;SDS011;47304;47.456;19.160;2023-08-17T02:21:48;15.90;;;10.50;;
61435;SDS011;47304;47.456;19.160;2023-08-17T02:24:14;15.00;;;10.00;;
61435;SDS011;47304;47.456;19.160;2023-08-17T02:26:41;14.10;;;9.70;;
61435;SDS011;47304;47.456;19.160;2023-08-17T02:29:07;18.10;;;10.20;;
61435;SDS011;47304;47.456;19.160;2023-08-17T02:31:34;13.10;;;9.60;;
61435;SDS011;47304;47.456;19.160;2023-08-17T02:34:00;13.10;;;9.60;;
61435;SDS011;47304;47.456;19.160;2023-08-17T02:36:27;14.20;;;9.70;;
61435;SDS011;47304;47.456;19.160;2023-08-17T02:38:53;12.80;;;9.30;;
61435;SDS011;47304;47.456;19.160;2023-08-17T02:41:20;14.70;;;10.20;;
61435;SDS011;47304;47.456;19.160;2023-08-17T02:43:46;12.50;;;8.80;;
61435;SDS011;47304;47.456;19.160;2023-08-17T02:46:13;12.30;;;9.40;;
61435;SDS011;47304;47.456;19.160;2023-08-17T02:48:40;12.30;;;9.10;;
61435;SDS011;47304;47.456;19.160;2023-08-17T02:51:06;11.90;;;8.60;;
61435;SDS011;47304;47.456;19.160;2023-08-17T02:53:33;12.00;;;8.60;;
61435;SDS011;47304;47.456;19.160;2023-08-17T02:55:59;12.10;;;8.90;;
61435;SDS011;47304;47.456;19.160;2023-08-17T02:58:26;12.20;;;9.10;;
61435;SDS011;47304;47.456;19.160;2023-08-17T03:00:52;13.00;;;8.60;;
61435;SDS011;47304;47.456;19.160;2023-08-17T03:03:19;12.30;;;9.00;;
61435;SDS011;47304;47.456;19.160;2023-08-17T03:05:46;12.10;;;8.50;;
61435;SDS011;47304;47.456;19.160;2023-08-17T03:08:12;12.80;;;8.90;;
61435;SDS011;47304;47.456;19.160;2023-08-17T03:10:39;11.90;;;8.60;;
61435;SDS011;47304;47.456;19.160;2023-08-17T03:13:05;11.50;;;8.40;;
61435;SDS011;47304;47.456;19.160;2023-08-17T03:15:32;16.00;;;9.30;;
61435;SDS011;47304;47.456;19.160;2023-08-17T03:17:58;11.10;;;8.40;;
61435;SDS011;47304;47.456;19.160;2023-08-17T03:20:25;11.80;;;8.10;;
61435;SDS011;47304;47.456;19.160;2023-08-17T03:22:51;12.50;;;8.40;;
61435;SDS011;47304;47.456;19.160;2023-08-17T03:25:18;11.30;;;8.00;;
61435;SDS011;47304;47.456;19.160;2023-08-17T03:27:45;11.50;;;7.60;;
61435;SDS011;47304;47.456;19.160;2023-08-17T03:30:11;10.60;;;8.00;;
61435;SDS011;47304;47.456;19.160;2023-08-17T03:32:38;12.90;;;8.50;;
61435;SDS011;47304;47.456;19.160;2023-08-17T03:35:05;11.40;;;8.70;;
61435;SDS011;47304;47.456;19.160;2023-08-17T03:37:31;12.20;;;8.70;;
61435;SDS011;47304;47.456;19.160;2023-08-17T03:39:58;12.50;;;8.50;;
61435;SDS011;47304;47.456;19.160;2023-08-17T03:42:24;14.60;;;9.00;;
61435;SDS011;47304;47.456;19.160;2023-08-17T03:44:51;12.20;;;9.20;;
61435;SDS011;47304;47.456;19.160;2023-08-17T03:47:18;12.40;;;8.70;;
61435;SDS011;47304;47.456;19.160;2023-08-17T03:49:45;11.30;;;8.70;;
61435;SDS011;47304;47.456;19.160;2023-08-17T03:52:11;13.20;;;9.10;;
61435;SDS011;47304;47.456;19.160;2023-08-17T03:54:38;13.20;;;9.50;;
61435;SDS011;47304;47.456;19.160;2023-08-17T03:57:04;12.50;;;9.10;;
61435;SDS011;47304;47.456;19.160;2023-08-17T03:59:31;15.30;;;9.30;;
61435;SDS011;47304;47.456;19.160;2023-08-17T04:01:57;12.50;;;9.00;;
61435;SDS011;47304;47.456;19.160;2023-08-17T04:04:24;11.40;;;8.50;;
61435;SDS011;47304;47.456;19.160;2023-08-17T04:06:51;17.00;;;10.20;;
61435;SDS011;47304;47.456;19.160;2023-08-17T04:09:17;15.40;;;10.40;;
61435;SDS011;47304;47.456;19.160;2023-08-17T04:11:44;14.90;;;10.30;;
61435;SDS011;47304;47.456;19.160;2023-08-17T04:14:10;13.60;;;10.00;;
61435;SDS011;47304;47.456;19.160;2023-08-17T04:16:37;14.90;;;10.10;;
61435;SDS011;47304;47.456;19.160;2023-08-17T04:19:04;13.90;;;10.50;;
61435;SDS011;47304;47.456;19.160;2023-08-17T04:21:30;14.20;;;10.20;;
61435;SDS011;47304;47.456;19.160;2023-08-17T04:23:57;12.90;;;9.90;;
61435;SDS011;47304;47.456;19.160;2023-08-17T04:26:23;12.60;;;9.80;;
61435;SDS011;47304;47.456;19.160;2023-08-17T04:28:50;15.00;;;9.80;;
61435;SDS011;47304;47.456;19.160;2023-08-17T04:31:16;16.10;;;10.30;;
61435;SDS011;47304;47.456;19.160;2023-08-17T04:33:43;14.50;;;10.40;;
61435;SDS011;47304;47.456;19.160;2023-08-17T04:36:09;15.80;;;11.00;;
61435;SDS011;47304;47.456;19.160;2023-08-17T04:38:36;14.50;;;10.20;;
61435;SDS011;47304;47.456;19.160;2023-08-17T04:41:03;16.20;;;11.70;;
61435;SDS011;47304;47.456;19.160;2023-08-17T04:43:29;19.20;;;11.20;;
61435;SDS011;47304;47.456;19.160;2023-08-17T04:45:56;15.10;;;11.30;;
61435;SDS011;47304;47.456;19.160;2023-08-17T04:48:22;15.40;;;11.10;;
61435;SDS011;47304;47.456;19.160;2023-08-17T04:50:50;14.50;;;11.20;;
61435;SDS011;47304;47.456;19.160;2023-08-17T04:53:17;13.60;;;11.40;;
61435;SDS011;47304;47.456;19.160;2023-08-17T04:55:44;15.60;;;11.50;;
61435;SDS011;47304;47.456;19.160;2023-08-17T04:58:10;17.50;;;12.00;;
61435;SDS011;47304;47.456;19.160;2023-08-17T05:00:37;16.60;;;12.20;;
61435;SDS011;47304;47.456;19.160;2023-08-17T05:03:03;16.60;;;12.00;;
61435;SDS011;47304;47.456;19.160;2023-08-17T05:05:33;20.40;;;12.30;;
61435;SDS011;47304;47.456;19.160;2023-08-17T05:07:59;16.70;;;11.30;;
61435;SDS011;47304;47.456;19.160;2023-08-17T05:10:26;16.50;;;11.70;;
61435;SDS011;47304;47.456;19.160;2023-08-17T05:12:52;15.30;;;11.50;;
61435;SDS011;47304;47.456;19.160;2023-08-17T05:15:20;15.40;;;11.50;;
61435;SDS011;47304;47.456;19.160;2023-08-17T05:17:46;17.30;;;12.20;;
61435;SDS011;47304;47.456;19.160;2023-08-17T05:20:13;14.50;;;11.50;;
61435;SDS011;47304;47.456;19.160;2023-08-17T05:22:39;16.40;;;11.50;;
61435;SDS011;47304;47.456;19.160;2023-08-17T05:25:06;14.80;;;10.80;;
61435;SDS011;47304;47.456;19.160;2023-08-17T05:27:33;16.70;;;12.20;;
61435;SDS011;47304;47.456;19.160;2023-08-17T05:29:59;17.80;;;12.50;;
61435;SDS011;47304;47.456;19.160;2023-08-17T05:32:26;14.80;;;11.40;;
61435;SDS011;47304;47.456;19.160;2023-08-17T05:34:53;17.30;;;11.50;;
61435;SDS011;47304;47.456;19.160;2023-08-17T05:37:22;13.20;;;11.00;;
61435;SDS011;47304;47.456;19.160;2023-08-17T05:39:49;14.80;;;11.20;;
61435;SDS011;47304;47.456;19.160;2023-08-17T05:42:16;15.00;;;11.30;;
61435;SDS011;47304;47.456;19.160;2023-08-17T05:44:42;16.40;;;10.70;;
61435;SDS011;47304;47.456;19.160;2023-08-17T05:47:09;17.40;;;11.00;;
61435;SDS011;47304;47.456;19.160;2023-08-17T05:49:35;14.50;;;10.20;;
61435;SDS011;47304;47.456;19.160;2023-08-17T05:52:02;15.70;;;10.40;;
61435;SDS011;47304;47.456;19.160;2023-08-17T05:54:29;13.10;;;9.60;;
61435;SDS011;47304;47.456;19.160;2023-08-17T05:56:55;13.00;;;10.10;;
61435;SDS011;47304;47.456;19.160;2023-08-17T05:59:21;15.30;;;9.50;;
61435;SDS011;47304;47.456;19.160;2023-08-17T06:01:48;12.40;;;8.70;;
61435;SDS011;47304;47.456;19.160;2023-08-17T06:04:15;15.40;;;9.90;;
61435;SDS011;47304;47.456;19.160;2023-08-17T06:06:41;11.90;;;9.30;;
61435;SDS011;47304;47.456;19.160;2023-08-17T06:09:08;13.50;;;9.30;;
61435;SDS011;47304;47.456;19.160;2023-08-17T06:11:34;11.90;;;8.50;;
61435;SDS011;47304;47.456;19.160;2023-08-17T06:14:01;11.00;;;8.40;;
61435;SDS011;47304;47.456;19.160;2023-08-17T06:16:27;12.80;;;9.10;;
61435;SDS011;47304;47.456;19.160;2023-08-17T06:18:54;14.20;;;8.90;;
61435;SDS011;47304;47.456;19.160;2023-08-17T06:21:20;14.10;;;8.50;;
61435;SDS011;47304;47.456;19.160;2023-08-17T06:23:47;11.00;;;7.60;;
61435;SDS011;47304;47.456;19.160;2023-08-17T06:26:14;11.70;;;8.20;;
61435;SDS011;47304;47.456;19.160;2023-08-17T06:28:40;11.80;;;9.00;;
61435;SDS011;47304;47.456;19.160;2023-08-17T06:31:07;12.30;;;9.00;;
61435;SDS011;47304;47.456;19.160;2023-08-17T06:33:34;11.40;;;8.10;;
61435;SDS011;47304;47.456;19.160;2023-08-17T06:36:00;12.50;;;8.80;;
61435;SDS011;47304;47.456;19.160;2023-08-17T06:38:27;14.30;;;9.20;;
61435;SDS011;47304;47.456;19.160;2023-08-17T06:40:53;11.50;;;8.30;;
61435;SDS011;47304;47.456;19.160;2023-08-17T06:43:20;13.20;;;9.30;;
61435;SDS011;47304;47.456;19.160;2023-08-17T06:45:46;11.40;;;8.60;;
61435;SDS011;47304;47.456;19.160;2023-08-17T06:48:13;13.50;;;8.70;;
61435;SDS011;47304;47.456;19.160;2023-08-17T06:50:39;12.90;;;8.70;;
61435;SDS011;47304;47.456;19.160;2023-08-17T06:53:06;11.80;;;8.60;;
61435;SDS011;47304;47.456;19.160;2023-08-17T06:55:33;11.80;;;8.20;;
61435;SDS011;47304;47.456;19.160;2023-08-17T06:57:59;11.40;;;8.30;;
61435;SDS011;47304;47.456;19.160;2023-08-17T07:00:26;12.60;;;8.20;;
61435;SDS011;47304;47.456;19.160;2023-08-17T07:02:52;51.80;;;37.20;;
61435;SDS011;47304;47.456;19.160;2023-08-17T07:05:24;45.30;;;17.60;;
61435;SDS011;47304;47.456;19.160;2023-08-17T07:07:50;17.80;;;10.00;;
61435;SDS011;47304;47.456;19.160;2023-08-17T07:10:17;13.10;;;8.70;;
61435;SDS011;47304;47.456;19.160;2023-08-17T07:12:43;11.20;;;8.30;;
61435;SDS011;47304;47.456;19.160;2023-08-17T07:15:10;16.00;;;8.90;;
61435;SDS011;47304;47.456;19.160;2023-08-17T07:17:37;11.00;;;8.20;;
61435;SDS011;47304;47.456;19.160;2023-08-17T07:20:04;11.80;;;8.50;;
61435;SDS011;47304;47.456;19.160;2023-08-17T07:22:34;12.70;;;8.30;;
61435;SDS011;47304;47.456;19.160;2023-08-17T07:25:00;11.20;;;7.90;;
61435;SDS011;47304;47.456;19.160;2023-08-17T07:27:27;12.70;;;8.60;;
61435;SDS011;47304;47.456;19.160;2023-08-17T07:29:54;11.20;;;8.10;;
61435;SDS011;47304;47.456;19.160;2023-08-17T07:32:20;10.90;;;7.70;;
61435;SDS011;47304;47.456;19.160;2023-08-17T07:34:47;12.10;;;7.90;;
61435;SDS011;47304;47.456;19.160;2023-08-17T07:37:14;11.40;;;8.30;;
61435;SDS011;47304;47.456;19.160;2023-08-17T07:39:41;10.10;;;7.50;;
61435;SDS011;47304;47.456;19.160;2023-08-17T07:42:08;11.20;;;7.00;;
61435;SDS011;47304;47.456;19.160;2023-08-17T07:44:34;9.50;;;6.80;;
61435;SDS011;47304;47.456;19.160;2023-08-17T07:47:01;9.30;;;6.80;;
61435;SDS011;47304;47.456;19.160;2023-08-17T07:49:28;9.90;;;6.20;;
61435;SDS011;47304;47.456;19.160;2023-08-17T07:51:58;10.50;;;6.50;;
61435;SDS011;47304;47.456;19.160;2023-08-17T07:54:25;10.10;;;6.20;;
61435;SDS011;47304;47.456;19.160;2023-08-17T07:56:51;9.30;;;6.50;;
61435;SDS011;47304;47.456;19.160;2023-08-17T07:59:18;9.20;;;5.20;;
61435;SDS011;47304;47.456;19.160;2023-08-17T08:01:44;9.00;;;5.80;;
61435;SDS011;47304;47.456;19.160;2023-08-17T08:04:11;9.70;;;6.20;;
61435;SDS011;47304;47.456;19.160;2023-08-17T08:06:38;9.50;;;5.40;;
61435;SDS011;47304;47.456;19.160;2023-08-17T08:09:04;10.20;;;5.70;;
61435;SDS011;47304;47.456;19.160;2023-08-17T08:11:31;10.30;;;5.50;;
61435;SDS011;47304;47.456;19.160;2023-08-17T08:13:57;10.60;;;4.90;;
61435;SDS011;47304;47.456;19.160;2023-08-17T08:16:24;7.50;;;4.70;;
61435;SDS011;47304;47.456;19.160;2023-08-17T08:18:51;7.70;;;4.50;;
61435;SDS011;47304;47.456;19.160;2023-08-17T08:21:17;8.60;;;5.10;;
61435;SDS011;47304;47.456;19.160;2023-08-17T08:23:44;8.50;;;4.90;;
61435;SDS011;47304;47.456;19.160;2023-08-17T08:26:10;11.50;;;5.40;;
61435;SDS011;47304;47.456;19.160;2023-08-17T08:28:37;10.00;;;5.20;;
61435;SDS011;47304;47.456;19.160;2023-08-17T08:31:03;8.60;;;4.90;;
61435;SDS011;47304;47.456;19.160;2023-08-17T08:33:30;8.60;;;5.10;;
61435;SDS011;47304;47.456;19.160;2023-08-17T08:35:57;9.60;;;5.10;;
61435;SDS011;47304;47.456;19.160;2023-08-17T08:38:24;8.10;;;4.80;;
61435;SDS011;47304;47.456;19.160;2023-08-17T08:40:50;7.60;;;4.40;;
61435;SDS011;47304;47.456;19.160;2023-08-17T08:43:17;7.80;;;4.70;;
61435;SDS011;47304;47.456;19.160;2023-08-17T08:45:44;8.80;;;4.20;;
61435;SDS011;47304;47.456;19.160;2023-08-17T08:48:12;7.00;;;4.00;;
61435;SDS011;47304;47.456;19.160;2023-08-17T08:50:40;7.80;;;4.40;;
61435;SDS011;47304;47.456;19.160;2023-08-17T08:53:11;7.90;;;4.60;;
61435;SDS011;47304;47.456;19.160;2023-08-17T08:55:54;7.60;;;4.40;;
61435;SDS011;47304;47.456;19.160;2023-08-17T08:58:24;9.20;;;4.60;;
61435;SDS011;47304;47.456;19.160;2023-08-17T09:00:51;7.80;;;4.80;;
61435;SDS011;47304;47.456;19.160;2023-08-17T09:03:18;8.50;;;4.50;;
61435;SDS011;47304;47.456;19.160;2023-08-17T09:05:47;7.60;;;4.50;;
61435;SDS011;47304;47.456;19.160;2023-08-17T09:08:16;9.30;;;5.10;;
61435;SDS011;47304;47.456;19.160;2023-08-17T09:10:45;8.60;;;4.50;;
61435;SDS011;47304;47.456;19.160;2023-08-17T09:13:11;7.30;;;4.30;;
61435;SDS011;47304;47.456;19.160;2023-08-17T09:15:38;8.30;;;4.80;;
61435;SDS011;47304;47.456;19.160;2023-08-17T09:18:07;9.30;;;4.80;;
61435;SDS011;47304;47.456;19.160;2023-08-17T09:23:13;8.80;;;4.50;;
61435;SDS011;47304;47.456;19.160;2023-08-17T09:25:42;7.90;;;4.50;;
61435;SDS011;47304;47.456;19.160;2023-08-17T09:28:10;8.90;;;4.70;;
61435;SDS011;47304;47.456;19.160;2023-08-17T09:30:58;7.90;;;4.60;;
61435;SDS011;47304;47.456;19.160;2023-08-17T09:33:26;8.10;;;4.60;;
61435;SDS011;47304;47.456;19.160;2023-08-17T09:35:55;8.40;;;4.80;;
61435;SDS011;47304;47.456;19.160;2023-08-17T09:38:25;10.00;;;5.60;;
61435;SDS011;47304;47.456;19.160;2023-08-17T09:40:52;8.90;;;5.10;;
61435;SDS011;47304;47.456;19.160;2023-08-17T09:43:19;8.90;;;4.60;;
61435;SDS011;47304;47.456;19.160;2023-08-17T09:45:47;7.90;;;5.00;;
61435;SDS011;47304;47.456;19.160;2023-08-17T09:48:14;7.90;;;5.00;;
61435;SDS011;47304;47.456;19.160;2023-08-17T09:50:45;9.60;;;4.90;;
61435;SDS011;47304;47.456;19.160;2023-08-17T09:53:17;10.00;;;5.30;;
61435;SDS011;47304;47.456;19.160;2023-08-17T09:55:44;8.40;;;4.60;;
61435;SDS011;47304;47.456;19.160;2023-08-17T09:58:11;9.40;;;4.60;;
61435;SDS011;47304;47.456;19.160;2023-08-17T10:00:39;8.20;;;4.40;;
61435;SDS011;47304;47.456;19.160;2023-08-17T10:03:06;10.10;;;4.60;;
61435;SDS011;47304;47.456;19.160;2023-08-17T10:05:35;8.40;;;4.90;;
61435;SDS011;47304;47.456;19.160;2023-08-17T10:08:06;8.30;;;4.50;;
61435;SDS011;47304;47.456;19.160;2023-08-17T10:10:34;8.20;;;4.50;;
61435;SDS011;47304;47.456;19.160;2023-08-17T10:15:38;7.70;;;4.30;;
61435;SDS011;47304;47.456;19.160;2023-08-17T10:20:42;7.80;;;4.00;;
61435;SDS011;47304;47.456;19.160;2023-08-17T10:23:19;8.20;;;4.50;;
61435;SDS011;47304;47.456;19.160;2023-08-17T10:25:49;8.50;;;4.20;;
61435;SDS011;47304;47.456;19.160;2023-08-17T10:28:17;8.70;;;4.20;;
61435;SDS011;47304;47.456;19.160;2023-08-17T10:30:44;7.10;;;4.30;;
61435;SDS011;47304;47.456;19.160;2023-08-17T10:33:10;9.10;;;4.30;;
61435;SDS011;47304;47.456;19.160;2023-08-17T10:35:37;8.90;;;4.00;;
61435;SDS011;47304;47.456;19.160;2023-08-17T10:38:08;7.90;;;4.10;;
61435;SDS011;47304;47.456;19.160;2023-08-17T10:40:41;6.60;;;3.70;;
61435;SDS011;47304;47.456;19.160;2023-08-17T10:43:08;7.90;;;4.40;;
61435;SDS011;47304;47.456;19.160;2023-08-17T10:45:35;8.60;;;4.20;;
61435;SDS011;47304;47.456;19.160;2023-08-17T10:50:34;7.60;;;4.10;;
61435;SDS011;47304;47.456;19.160;2023-08-17T10:53:10;7.90;;;4.20;;
61435;SDS011;47304;47.456;19.160;2023-08-17T10:55:39;7.90;;;4.40;;
61435;SDS011;47304;47.456;19.160;2023-08-17T10:58:06;8.40;;;4.10;;
61435;SDS011;47304;47.456;19.160;2023-08-17T11:00:39;8.20;;;4.10;;
61435;SDS011;47304;47.456;19.160;2023-08-17T11:03:07;8.00;;;4.40;;
61435;SDS011;47304;47.456;19.160;2023-08-17T11:08:07;8.40;;;4.20;;
61435;SDS011;47304;47.456;19.160;2023-08-17T11:11:05;7.70;;;4.00;;
61435;SDS011;47304;47.456;19.160;2023-08-17T11:13:42;8.30;;;4.50;;
61435;SDS011;47304;47.456;19.160;2023-08-17T11:16:10;7.50;;;4.30;;
61435;SDS011;47304;47.456;19.160;2023-08-17T11:18:43;7.80;;;4.30;;
61435;SDS011;47304;47.456;19.160;2023-08-17T11:21:10;8.30;;;4.20;;
61435;SDS011;47304;47.456;19.160;2023-08-17T11:23:37;7.90;;;4.00;;
61435;SDS011;47304;47.456;19.160;2023-08-17T11:26:04;7.30;;;4.30;;
61435;SDS011;47304;47.456;19.160;2023-08-17T11:28:31;9.30;;;4.20;;
61435;SDS011;47304;47.456;19.160;2023-08-17T11:30:59;7.40;;;4.10;;
61435;SDS011;47304;47.456;19.160;2023-08-17T11:33:27;8.50;;;4.40;;
61435;SDS011;47304;47.456;19.160;2023-08-17T11:35:55;7.10;;;4.00;;
61435;SDS011;47304;47.456;19.160;2023-08-17T11:38:38;10.20;;;4.60;;
61435;SDS011;47304;47.456;19.160;2023-08-17T11:41:09;9.10;;;4.60;;
61435;SDS011;47304;47.456;19.160;2023-08-17T11:43:43;8.50;;;4.30;;
61435;SDS011;47304;47.456;19.160;2023-08-17T11:46:09;7.60;;;4.30;;
61435;SDS011;47304;47.456;19.160;2023-08-17T11:48:36;7.60;;;4.60;;
61435;SDS011;47304;47.456;19.160;2023-08-17T11:51:03;7.70;;;4.40;;
61435;SDS011;47304;47.456;19.160;2023-08-17T11:53:33;9.20;;;4.50;;
61435;SDS011;47304;47.456;19.160;2023-08-17T11:56:00;8.00;;;4.30;;
61435;SDS011;47304;47.456;19.160;2023-08-17T11:58:36;8.00;;;4.20;;
61435;SDS011;47304;47.456;19.160;2023-08-17T12:01:10;7.70;;;4.40;;
61435;SDS011;47304;47.456;19.160;2023-08-17T12:03:37;8.60;;;3.80;;
61435;SDS011;47304;47.456;19.160;2023-08-17T12:06:05;8.50;;;4.40;;
61435;SDS011;47304;47.456;19.160;2023-08-17T12:08:33;8.60;;;4.20;;
61435;SDS011;47304;47.456;19.160;2023-08-17T12:11:00;9.20;;;4.70;;
61435;SDS011;47304;47.456;19.160;2023-08-17T12:13:35;7.70;;;4.10;;
61435;SDS011;47304;47.456;19.160;2023-08-17T12:16:02;9.10;;;4.60;;
61435;SDS011;47304;47.456;19.160;2023-08-17T12:18:33;8.10;;;4.50;;
61435;SDS011;47304;47.456;19.160;2023-08-17T12:21:00;7.50;;;4.30;;
61435;SDS011;47304;47.456;19.160;2023-08-17T12:23:27;8.10;;;4.70;;
61435;SDS011;47304;47.456;19.160;2023-08-17T12:25:54;9.00;;;4.60;;
61435;SDS011;47304;47.456;19.160;2023-08-17T12:28:21;7.90;;;4.20;;
61435;SDS011;47304;47.456;19.160;2023-08-17T12:30:56;7.70;;;4.20;;
61435;SDS011;47304;47.456;19.160;2023-08-17T12:33:27;7.10;;;4.60;;
61435;SDS011;47304;47.456;19.160;2023-08-17T12:35:53;7.00;;;4.00;;
61435;SDS011;47304;47.456;19.160;2023-08-17T12:38:21;7.40;;;4.70;;
61435;SDS011;47304;47.456;19.160;2023-08-17T12:40:49;8.40;;;4.10;;
61435;SDS011;47304;47.456;19.160;2023-08-17T12:43:16;8.30;;;4.10;;
61435;SDS011;47304;47.456;19.160;2023-08-17T12:45:42;7.50;;;4.80;;
61435;SDS011;47304;47.456;19.160;2023-08-17T12:48:09;9.20;;;4.30;;
61435;SDS011;47304;47.456;19.160;2023-08-17T12:50:35;7.30;;;4.40;;
61435;SDS011;47304;47.456;19.160;2023-08-17T12:53:09;8.80;;;4.50;;
61435;SDS011;47304;47.456;19.160;2023-08-17T12:55:35;8.30;;;4.40;;
61435;SDS011;47304;47.456;19.160;2023-08-17T12:58:02;8.80;;;4.50;;
61435;SDS011;47304;47.456;19.160;2023-08-17T13:00:29;8.10;;;4.60;;
61435;SDS011;47304;47.456;19.160;2023-08-17T13:02:55;7.50;;;4.60;;
61435;SDS011;47304;47.456;19.160;2023-08-17T13:05:22;8.60;;;4.60;;
61435;SDS011;47304;47.456;19.160;2023-08-17T13:07:48;8.70;;;4.70;;
61435;SDS011;47304;47.456;19.160;2023-08-17T13:10:15;8.50;;;4.30;;
61435;SDS011;47304;47.456;19.160;2023-08-17T13:12:42;9.20;;;4.70;;
61435;SDS011;47304;47.456;19.160;2023-08-17T13:15:08;8.60;;;4.90;;
61435;SDS011;47304;47.456;19.160;2023-08-17T13:17:35;8.00;;;4.80;;
61435;SDS011;47304;47.456;19.160;2023-08-17T13:20:01;7.10;;;4.50;;
61435;SDS011;47304;47.456;19.160;2023-08-17T13:22:28;7.60;;;4.50;;
61435;SDS011;47304;47.456;19.160;2023-08-17T13:24:55;8.00;;;4.50;;
61435;SDS011;47304;47.456;19.160;2023-08-17T13:27:21;8.00;;;4.20;;
61435;SDS011;47304;47.456;19.160;2023-08-17T13:29:48;8.20;;;4.60;;
61435;SDS011;47304;47.456;19.160;2023-08-17T13:32:14;8.70;;;4.80;;
61435;SDS011;47304;47.456;19.160;2023-08-17T13:34:41;8.10;;;4.60;;
61435;SDS011;47304;47.456;19.160;2023-08-17T13:37:07;8.50;;;4.40;;
61435;SDS011;47304;47.456;19.160;2023-08-17T13:39:34;8.00;;;4.50;;
61435;SDS011;47304;47.456;19.160;2023-08-17T13:42:01;7.40;;;4.40;;
61435;SDS011;47304;47.456;19.160;2023-08-17T13:44:27;8.00;;;4.60;;
61435;SDS011;47304;47.456;19.160;2023-08-17T13:46:54;8.30;;;4.80;;
61435;SDS011;47304;47.456;19.160;2023-08-17T13:49:20;7.60;;;4.40;;
61435;SDS011;47304;47.456;19.160;2023-08-17T13:51:47;7.70;;;4.40;;
61435;SDS011;47304;47.456;19.160;2023-08-17T13:54:13;8.10;;;4.30;;
61435;SDS011;47304;47.456;19.160;2023-08-17T13:56:40;7.60;;;4.50;;
61435;SDS011;47304;47.456;19.160;2023-08-17T13:59:06;9.90;;;5.30;;
61435;SDS011;47304;47.456;19.160;2023-08-17T14:01:33;8.00;;;4.60;;
61435;SDS011;47304;47.456;19.160;2023-08-17T14:04:00;28.00;;;6.50;;
61435;SDS011;47304;47.456;19.160;2023-08-17T14:06:27;44.80;;;7.10;;
61435;SDS011;47304;47.456;19.160;2023-08-17T14:08:53;9.50;;;4.70;;
61435;SDS011;47304;47.456;19.160;2023-08-17T14:11:22;165.10;;;17.40;;
61435;SDS011;47304;47.456;19.160;2023-08-17T14:13:48;18.60;;;5.50;;
61435;SDS011;47304;47.456;19.160;2023-08-17T14:16:15;10.30;;;5.10;;
61435;SDS011;47304;47.456;19.160;2023-08-17T14:18:42;7.30;;;4.60;;
61435;SDS011;47304;47.456;19.160;2023-08-17T14:21:08;7.70;;;4.70;;
61435;SDS011;47304;47.456;19.160;2023-08-17T14:23:35;7.70;;;4.70;;
61435;SDS011;47304;47.456;19.160;2023-08-17T14:26:01;12.30;;;7.00;;
61435;SDS011;47304;47.456;19.160;2023-08-17T14:28:28;10.90;;;5.80;;
61435;SDS011;47304;47.456;19.160;2023-08-17T14:30:54;10.30;;;5.90;;
61435;SDS011;47304;47.456;19.160;2023-08-17T14:33:21;15.40;;;7.70;;
61435;SDS011;47304;47.456;19.160;2023-08-17T14:35:48;9.10;;;5.70;;
61435;SDS011;47304;47.456;19.160;2023-08-17T14:38:15;10.40;;;5.10;;
61435;SDS011;47304;47.456;19.160;2023-08-17T14:40:43;8.10;;;5.10;;
61435;SDS011;47304;47.456;19.160;2023-08-17T14:43:11;9.00;;;5.30;;
61435;SDS011;47304;47.456;19.160;2023-08-17T14:45:38;9.70;;;4.90;;